Time;durP1;ratioP1;P1;durP2;ratioP2;P2;SDS_P1;SDS_P2;PMS_P1;PMS_P2;Temp;Humidity;BMP_temperature;BMP_pressure;BME280_temperature;BME280_humidity;BME280_pressure;Samples;Min_cycle;Max_cycle;Signal;HPM_P1;HPM_P2
2021/05/01 00:02:24;;;;;;;;;;;;;;;22.02;45.01;100564.66;5056551;28;1995;-50
2021/05/01 00:04:49;;;;;;;;;;;;;;;22.19;44.54;100558.44;5056581;28;1152;-48
2021/05/01 00:07:14;;;;;;;;;;;;;;;22.19;44.52;100563.97;5056904;28;732;-49
2021/05/01 00:09:40;;;;;;;;;;;;;;;22.35;44.20;100562.44;5056636;28;1164;-51
2021/05/01 00:12:06;;;;;;;;;;;;;;;22.35;44.20;100578.25;5055125;28;1103;-48
2021/05/01 00:14:31;;;;;;;;;;;;;;;21.64;45.86;100579.72;5057040;28;787;-54
2021/05/01 00:16:56;;;;;;;;;;;;;;;21.59;46.14;100584.53;5056240;28;1010;-49
2021/05/01 00:19:22;;;;;;;;;;;;;;;21.18;46.66;100589.84;5056418;28;752;-51
2021/05/01 00:21:47;;;;;;;;;;;;;;;21.56;46.02;100590.69;5056806;28;1914;-51
2021/05/01 00:24:13;;;;;;;;;;;;;;;21.85;45.31;100587.50;5056490;28;799;-53
2021/05/01 00:26:38;;;;;;;;;;;;;;;21.75;45.81;100594.13;5056611;28;803;-49
2021/05/01 00:29:04;;;;;;;;;;;;;;;21.84;45.30;100596.97;5056454;28;752;-49
2021/05/01 00:31:29;;;;;;;;;;;;;;;21.96;45.26;100593.63;5056138;28;1017;-51
2021/05/01 00:33:55;;;;;;;;;;;;;;;22.04;45.03;100598.41;5056426;28;779;-50
2021/05/01 00:36:20;;;;;;;;;;;;;;;22.03;44.81;100605.06;5056728;28;801;-49
2021/05/01 00:38:46;;;;;;;;;;;;;;;21.97;44.97;100595.28;5038926;28;1126;-51
2021/05/01 00:41:11;;;;;;;;;;;;;;;21.77;45.46;100597.41;5038731;28;875;-51
2021/05/01 00:43:40;;;;;;;;;;;;;;;21.83;45.19;100607.22;5055402;28;1969;-47
2021/05/01 00:46:06;;;;;;;;;;;;;;;21.74;45.81;100603.56;5056213;28;811;-50
2021/05/01 00:48:31;;;;;;;;;;;;;;;21.77;45.38;100614.00;5056001;28;955;-53
2021/05/01 00:50:58;;;;;;;;;;;;;;;21.88;45.09;100615.41;5056294;28;846;-49
2021/05/01 00:53:23;;;;;;;;;;;;;;;22.05;44.80;100611.13;5056088;28;743;-50
2021/05/01 00:55:48;;;;;;;;;;;;;;;21.82;45.26;100621.38;5056152;28;867;-52
2021/05/01 00:58:14;;;;;;;;;;;;;;;22.09;44.72;100619.59;5054726;28;874;-51
2021/05/01 01:03:08;;;;;;;;;;;;;;;22.18;44.68;100613.00;5055705;28;1925;-49
2021/05/01 01:05:34;;;;;;;;;;;;;;;22.16;44.61;100609.75;5056083;28;799;-52
2021/05/01 01:07:59;;;;;;;;;;;;;;;21.98;45.06;100613.50;5055903;28;815;-56
2021/05/01 01:10:24;;;;;;;;;;;;;;;21.67;45.69;100605.94;5038108;28;1228;-52
2021/05/01 01:12:50;;;;;;;;;;;;;;;21.64;45.82;100599.09;5055809;28;791;-54
2021/05/01 01:15:25;;;;;;;;;;;;;;;21.92;45.14;100589.84;5056299;28;787;-52
2021/05/01 01:17:51;;;;;;;;;;;;;;;22.09;44.77;100581.69;5055987;28;959;-52
2021/05/01 01:20:16;;;;;;;;;;;;;;;22.03;44.80;100578.22;5038198;28;1091;-51
2021/05/01 01:22:42;;;;;;;;;;;;;;;22.32;44.20;100579.69;5056183;28;1914;-52
2021/05/01 01:25:08;;;;;;;;;;;;;;;22.03;44.67;100572.69;5056003;28;727;-51
2021/05/01 01:27:33;;;;;;;;;;;;;;;21.91;45.09;100575.19;5054351;28;1398;-51
2021/05/01 01:29:58;;;;;;;;;;;;;;;21.42;46.41;100563.88;5038651;28;1162;-53
2021/05/01 01:32:24;;;;;;;;;;;;;;;21.42;46.46;100563.03;5055562;28;1005;-52
2021/05/01 01:34:49;;;;;;;;;;;;;;;21.34;46.69;100562.66;5055699;28;764;-50
2021/05/01 01:37:15;;;;;;;;;;;;;;;21.32;46.74;100569.63;5055910;28;799;-52
2021/05/01 01:39:40;;;;;;;;;;;;;;;21.44;46.37;100561.59;5055716;28;811;-51
2021/05/01 01:42:05;;;;;;;;;;;;;;;21.75;45.50;100571.97;5055499;28;1973;-53
2021/05/01 01:44:31;;;;;;;;;;;;;;;21.91;45.14;100568.84;5055716;28;763;-50
2021/05/01 01:46:56;;;;;;;;;;;;;;;22.05;44.88;100558.53;5055266;28;994;-53
2021/05/01 01:49:22;;;;;;;;;;;;;;;22.13;44.48;100560.53;5055536;28;803;-52
2021/05/01 01:51:47;;;;;;;;;;;;;;;22.31;44.27;100555.88;5055734;28;741;-51
2021/05/01 01:54:13;;;;;;;;;;;;;;;21.88;45.08;100554.50;5055831;28;803;-54
2021/05/01 01:56:38;;;;;;;;;;;;;;;21.52;46.14;100551.78;5059371;28;747;-54
2021/05/01 01:59:07;;;;;;;;;;;;;;;21.15;46.65;100546.22;5059728;28;860;-50
2021/05/01 02:01:33;;;;;;;;;;;;;;;21.30;46.68;100544.25;5058634;28;958;-51
2021/05/01 02:03:58;;;;;;;;;;;;;;;21.74;45.50;100556.53;5059073;28;1910;-53
2021/05/01 02:06:24;;;;;;;;;;;;;;;21.88;45.00;100554.50;5059286;28;764;-54
2021/05/01 02:08:49;;;;;;;;;;;;;;;21.81;45.39;100545.81;5057660;28;760;-50
2021/05/01 02:11:14;;;;;;;;;;;;;;;22.01;44.75;100550.03;5058853;28;1435;-49
2021/05/01 02:13:40;;;;;;;;;;;;;;;22.06;44.63;100543.53;5059039;28;792;-49
2021/05/01 02:16:05;;;;;;;;;;;;;;;22.04;44.66;100545.81;5058988;28;736;-52
2021/05/01 02:18:31;;;;;;;;;;;;;;;22.14;44.56;100545.53;5058652;28;956;-51
2021/05/01 02:20:56;;;;;;;;;;;;;;;21.50;46.18;100548.47;5059255;28;731;-49
2021/05/01 02:23:22;;;;;;;;;;;;;;;21.35;46.53;100544.13;5058851;28;1918;-52
2021/05/01 02:25:47;;;;;;;;;;;;;;;21.03;47.28;100540.41;5058813;28;755;-50
2021/05/01 02:28:13;;;;;;;;;;;;;;;21.41;46.31;100542.06;5058623;28;727;-52
2021/05/01 02:30:38;;;;;;;;;;;;;;;21.70;45.61;100545.25;5058503;28;780;-53
2021/05/01 02:33:04;;;;;;;;;;;;;;;21.89;45.17;100547.00;5058215;28;1018;-51
2021/05/01 02:35:30;;;;;;;;;;;;;;;22.02;44.84;100554.44;5058519;28;838;-53
2021/05/01 02:37:55;;;;;;;;;;;;;;;21.98;44.83;100552.59;5058976;28;830;-50
2021/05/01 02:40:21;;;;;;;;;;;;;;;21.63;45.22;100558.72;5058562;28;800;-52
2021/05/01 02:42:46;;;;;;;;;;;;;;;21.83;45.29;100557.38;5058293;28;1979;-54
2021/05/01 02:45:13;;;;;;;;;;;;;;;21.96;44.85;100557.63;5058303;28;799;-48
2021/05/01 02:47:38;;;;;;;;;;;;;;;21.80;45.38;100551.69;5057889;28;954;-50
2021/05/01 02:50:04;;;;;;;;;;;;;;;21.41;46.22;100545.63;5058433;28;847;-50
2021/05/01 02:52:30;;;;;;;;;;;;;;;21.56;45.94;100543.66;5058211;28;783;-53
2021/05/01 02:54:55;;;;;;;;;;;;;;;21.69;45.73;100538.06;5058176;28;965;-48
2021/05/01 02:57:20;;;;;;;;;;;;;;;21.53;45.87;100543.16;5040480;28;1318;-53
2021/05/01 02:59:46;;;;;;;;;;;;;;;21.76;45.67;100551.47;5058346;28;788;-51
2021/05/01 03:02:11;;;;;;;;;;;;;;;21.61;45.86;100549.88;5057642;28;1906;-49
2021/05/01 03:04:37;;;;;;;;;;;;;;;21.63;46.03;100552.34;5057695;28;1088;-52
2021/05/01 03:07:02;;;;;;;;;;;;;;;21.95;44.94;100548.53;5057038;28;732;-48
2021/05/01 03:09:28;;;;;;;;;;;;;;;22.08;44.75;100546.81;5057790;28;847;-50
2021/05/01 03:11:53;;;;;;;;;;;;;;;22.07;44.52;100547.94;5057506;28;1028;-50
2021/05/01 03:14:18;;;;;;;;;;;;;;;22.18;44.41;100557.59;5057856;28;803;-50
2021/05/01 03:16:44;;;;;;;;;;;;;;;22.18;44.53;100565.09;5057378;28;955;-51
2021/05/01 03:19:09;;;;;;;;;;;;;;;21.90;44.91;100572.75;5057645;28;803;-57
2021/05/01 03:21:35;;;;;;;;;;;;;;;21.74;45.50;100572.28;5057702;28;1488;-58
2021/05/01 03:24:00;;;;;;;;;;;;;;;21.65;45.95;100580.53;5057551;28;1978;-48
2021/05/01 03:26:26;;;;;;;;;;;;;;;21.75;45.54;100583.03;5057534;28;835;-53
2021/05/01 03:28:51;;;;;;;;;;;;;;;22.02;44.81;100582.13;5057856;28;839;-57
2021/05/01 03:31:17;;;;;;;;;;;;;;;22.18;44.33;100585.31;5057466;28;1021;-48
2021/05/01 03:33:42;;;;;;;;;;;;;;;22.19;44.25;100592.47;5057293;28;939;-49
2021/05/01 03:36:08;;;;;;;;;;;;;;;22.38;44.10;100600.63;5057518;28;839;-49
2021/05/01 03:38:34;;;;;;;;;;;;;;;21.83;45.23;100603.63;5057110;28;795;-58
2021/05/01 03:41:00;;;;;;;;;;;;;;;21.45;46.28;100604.75;5057309;28;1383;-49
2021/05/01 03:43:25;;;;;;;;;;;;;;;20.90;47.66;100597.34;5057722;28;1979;-57
2021/05/01 03:45:51;;;;;;;;;;;;;;;21.18;47.08;100592.59;5057746;28;776;-56
2021/05/01 03:48:16;;;;;;;;;;;;;;;21.67;45.86;100594.84;5056943;28;955;-51
2021/05/01 03:50:42;;;;;;;;;;;;;;;21.89;45.10;100594.06;5057651;28;783;-49
2021/05/01 03:53:07;;;;;;;;;;;;;;;21.99;44.95;100595.75;5056007;28;857;-56
2021/05/01 03:55:33;;;;;;;;;;;;;;;22.05;44.74;100588.97;5056397;28;860;-59
2021/05/01 03:57:58;;;;;;;;;;;;;;;22.04;44.76;100590.09;5055882;28;810;-57
2021/05/01 04:00:24;;;;;;;;;;;;;;;22.14;44.45;100587.06;5056364;28;775;-52
2021/05/01 04:02:49;;;;;;;;;;;;;;;22.30;44.28;100592.22;5056259;28;1913;-51
2021/05/01 04:05:15;;;;;;;;;;;;;;;22.31;44.02;100583.56;5056659;28;1262;-50
2021/05/01 04:07:40;;;;;;;;;;;;;;;22.39;43.82;100582.84;5056707;28;736;-50
2021/05/01 04:10:06;;;;;;;;;;;;;;;21.97;44.79;100578.66;5054992;28;1304;-58
2021/05/01 04:12:31;;;;;;;;;;;;;;;21.61;45.91;100571.22;5056054;28;792;-59
2021/05/01 04:14:57;;;;;;;;;;;;;;;21.24;46.05;100582.25;5056572;28;799;-48
2021/05/01 04:17:22;;;;;;;;;;;;;;;21.56;46.02;100583.22;5047041;28;953;-49
2021/05/01 04:19:49;;;;;;;;;;;;;;;21.96;44.90;100599.16;5076372;28;747;-50
2021/05/01 04:22:17;;;;;;;;;;;;;;;22.01;44.92;100593.50;5076503;28;1972;-51
2021/05/01 04:24:43;;;;;;;;;;;;;;;22.12;44.52;100597.66;5076615;28;744;-59
2021/05/01 04:27:08;;;;;;;;;;;;;;;22.19;44.35;100603.56;5076379;28;748;-49
2021/05/01 04:29:34;;;;;;;;;;;;;;;22.34;44.15;100607.09;5076622;28;1426;-54
2021/05/01 04:31:59;;;;;;;;;;;;;;;22.44;43.75;100615.16;5076143;28;1009;-52
2021/05/01 04:34:25;;;;;;;;;;;;;;;22.44;43.75;100609.63;5076286;28;807;-58
2021/05/01 04:36:50;;;;;;;;;;;;;;;22.43;43.91;100623.75;5076447;28;804;-48
2021/05/01 04:39:15;;;;;;;;;;;;;;;21.74;45.51;100624.88;5076665;28;807;-57
2021/05/01 04:41:41;;;;;;;;;;;;;;;21.63;45.74;100625.13;5076429;28;744;-58
2021/05/01 04:44:07;;;;;;;;;;;;;;;21.43;45.80;100622.78;5076232;28;755;-53
2021/05/01 04:46:32;;;;;;;;;;;;;;;21.34;46.00;100631.00;5075887;28;946;-49
2021/05/01 04:48:58;;;;;;;;;;;;;;;21.78;45.50;100621.16;5075776;28;831;-57
2021/05/01 04:51:23;;;;;;;;;;;;;;;21.99;45.05;100626.22;5076368;28;796;-52
2021/05/01 04:53:49;;;;;;;;;;;;;;;22.19;44.41;100628.47;5076380;28;764;-55
2021/05/01 04:56:14;;;;;;;;;;;;;;;22.30;44.06;100630.97;5070516;28;1213;-60
2021/05/01 04:58:40;;;;;;;;;;;;;;;22.36;43.99;100619.50;5056173;28;760;-54
2021/05/01 05:01:05;;;;;;;;;;;;;;;22.10;44.40;100633.13;5038600;28;1371;-49
2021/05/01 05:03:31;;;;;;;;;;;;;;;21.61;45.89;100629.31;5070651;28;1976;-52
2021/05/01 05:05:56;;;;;;;;;;;;;;;21.48;45.83;100634.53;5056130;28;807;-60
2021/05/01 05:08:21;;;;;;;;;;;;;;;21.61;45.86;100632.09;5056297;28;768;-53
2021/05/01 05:10:47;;;;;;;;;;;;;;;21.96;45.10;100630.44;5055717;28;1121;-57
2021/05/01 05:13:12;;;;;;;;;;;;;;;22.17;44.53;100627.16;5055405;28;787;-58
2021/05/01 05:15:38;;;;;;;;;;;;;;;22.28;44.20;100627.72;5056063;28;770;-59
2021/05/01 05:18:04;;;;;;;;;;;;;;;22.23;44.36;100631.41;5054338;28;1238;-51
2021/05/01 05:20:29;;;;;;;;;;;;;;;22.26;44.26;100619.75;5055994;28;787;-56
2021/05/01 05:22:55;;;;;;;;;;;;;;;22.10;44.59;100618.47;5055806;28;1917;-50
2021/05/01 05:25:20;;;;;;;;;;;;;;;21.85;45.19;100626.25;5055838;28;807;-59
2021/05/01 05:27:46;;;;;;;;;;;;;;;21.70;45.39;100625.50;5056197;28;815;-54
2021/05/01 05:30:12;;;;;;;;;;;;;;;21.63;45.78;100622.34;5057858;28;759;-57
2021/05/01 05:32:37;;;;;;;;;;;;;;;21.93;45.37;100631.06;5059508;28;1022;-60
2021/05/01 05:35:03;;;;;;;;;;;;;;;22.12;44.63;100636.41;5059564;28;799;-57
2021/05/01 05:37:28;;;;;;;;;;;;;;;22.31;44.15;100632.63;5058554;28;830;-56
2021/05/01 05:39:53;;;;;;;;;;;;;;;22.22;44.22;100638.13;5059919;28;752;-54
2021/05/01 05:42:19;;;;;;;;;;;;;;;21.88;45.17;100629.25;5042077;28;1914;-59
2021/05/01 05:44:48;;;;;;;;;;;;;;;21.66;45.63;100643.84;5059453;28;767;-60
2021/05/01 05:47:13;;;;;;;;;;;;;;;21.73;45.63;100640.66;5058291;28;970;-59
2021/05/01 05:49:39;;;;;;;;;;;;;;;21.86;45.47;100631.47;5055342;28;970;-57
2021/05/01 05:52:04;;;;;;;;;;;;;;;22.06;44.69;100637.66;5057774;28;1197;-60
2021/05/01 05:54:30;;;;;;;;;;;;;;;22.24;44.24;100641.38;5058811;28;1191;-59
2021/05/01 05:56:55;;;;;;;;;;;;;;;22.37;44.25;100634.16;5058618;28;888;-52
2021/05/01 05:59:20;;;;;;;;;;;;;;;22.16;44.48;100642.97;5058628;28;1175;-59
2021/05/01 06:01:46;;;;;;;;;;;;;;;21.94;45.02;100634.66;5063240;28;1918;-54
2021/05/01 06:04:26;;;;;;;;;;;;;;;21.80;45.46;100635.53;5067117;28;1103;-51
2021/05/01 06:06:53;;;;;;;;;;;;;;;21.61;46.08;100638.44;5056538;28;1033;-58
2021/05/01 06:09:18;;;;;;;;;;;;;;;21.98;45.16;100632.88;5057281;28;826;-59
2021/05/01 06:11:44;;;;;;;;;;;;;;;22.24;44.64;100633.06;5048864;28;1108;-50
2021/05/01 06:14:09;;;;;;;;;;;;;;;22.37;44.35;100637.75;5056709;28;982;-50
2021/05/01 06:16:36;;;;;;;;;;;;;;;22.13;44.74;100629.75;5060154;28;1006;-47
2021/05/01 06:19:02;;;;;;;;;;;;;;;22.01;45.15;100637.81;5077390;28;819;-58
2021/05/01 06:21:27;;;;;;;;;;;;;;;21.79;45.23;100633.88;5067109;28;884;-57
2021/05/01 06:23:53;;;;;;;;;;;;;;;21.68;46.05;100640.78;5055509;28;1910;-59
2021/05/01 06:26:18;;;;;;;;;;;;;;;21.96;45.37;100643.47;5062683;28;928;-59
2021/05/01 06:28:43;;;;;;;;;;;;;;;22.22;44.80;100652.78;5077454;28;1072;-51
2021/05/01 06:31:09;;;;;;;;;;;;;;;22.39;44.23;100646.56;5078154;28;751;-52
2021/05/01 06:33:36;;;;;;;;;;;;;;;22.08;44.84;100640.94;5060507;28;1373;-58
2021/05/01 06:36:24;;;;;;;;;;;;;;;21.88;45.45;100639.47;5058358;28;923;-59
2021/05/01 06:38:51;;;;;;;;;;;;;;;21.87;45.29;100632.31;5058615;28;893;-59
2021/05/01 06:41:17;;;;;;;;;;;;;;;21.62;46.21;100644.81;5058265;28;1087;-48
2021/05/01 06:43:52;;;;;;;;;;;;;;;21.85;45.77;100637.34;5058739;28;1979;-58
2021/05/01 06:46:18;;;;;;;;;;;;;;;22.14;44.93;100634.13;5059166;28;888;-49
2021/05/01 06:48:44;;;;;;;;;;;;;;;22.36;44.42;100640.84;5066608;28;947;-57
2021/05/01 06:51:09;;;;;;;;;;;;;;;21.95;45.57;100636.28;5055771;28;939;-51
2021/05/01 06:53:36;;;;;;;;;;;;;;;21.72;46.18;100632.69;5059750;28;888;-52
2021/05/01 06:56:02;;;;;;;;;;;;;;;21.71;45.76;100634.63;5056492;28;888;-59
2021/05/01 06:58:31;;;;;;;;;;;;;;;21.64;46.34;100639.75;5058228;28;1175;-53
2021/05/01 07:01:04;;;;;;;;;;;;;;;21.95;45.58;100642.66;5056429;28;908;-51
2021/05/01 07:03:31;;;;;;;;;;;;;;;22.21;44.91;100650.31;5072336;28;1917;-51
2021/05/01 07:05:57;;;;;;;;;;;;;;;22.43;44.42;100640.38;5056202;28;899;-60
2021/05/01 07:08:23;;;;;;;;;;;;;;;21.94;45.62;100646.53;5057546;28;839;-61
2021/05/01 07:10:49;;;;;;;;;;;;;;;22.05;45.26;100652.66;5056810;28;1040;-50
2021/05/01 07:13:14;;;;;;;;;;;;;;;21.83;45.30;100651.50;5058254;28;810;-62
2021/05/01 07:15:41;;;;;;;;;;;;;;;21.74;46.29;100656.16;5057474;28;736;-52
2021/05/01 07:18:06;;;;;;;;;;;;;;;22.16;45.05;100654.03;5061151;28;932;-53
2021/05/01 07:20:31;;;;;;;;;;;;;;;22.26;44.97;100657.69;5075608;28;1063;-62
2021/05/01 07:22:57;;;;;;;;;;;;;;;22.25;44.87;100662.41;5074812;28;1976;-48
2021/05/01 07:25:23;;;;;;;;;;;;;;;22.16;44.99;100665.13;5075599;28;936;-48
2021/05/01 07:27:56;;;;;;;;;;;;;;;21.99;45.54;100664.97;5077127;28;891;-58
2021/05/01 07:30:22;;;;;;;;;;;;;;;21.73;46.31;100665.56;5058731;28;973;-56
2021/05/01 07:32:48;;;;;;;;;;;;;;;21.90;45.98;100664.09;5055732;28;957;-48
2021/05/01 07:35:14;;;;;;;;;;;;;;;22.24;45.14;100671.84;5057139;28;764;-54
2021/05/01 07:37:40;;;;;;;;;;;;;;;22.47;44.45;100664.38;5056006;28;748;-56
2021/05/01 07:40:06;;;;;;;;;;;;;;;22.19;45.25;100660.91;5057573;28;939;-47
2021/05/01 07:42:36;;;;;;;;;;;;;;;22.14;45.17;100659.06;5056944;28;1910;-51
2021/05/01 07:45:02;;;;;;;;;;;;;;;21.70;45.87;100667.00;5057713;28;865;-49
2021/05/01 07:47:27;;;;;;;;;;;;;;;21.60;46.84;100663.66;5067254;28;873;-52
2021/05/01 07:49:52;;;;;;;;;;;;;;;22.04;45.61;100656.56;5075726;28;818;-47
2021/05/01 07:52:18;;;;;;;;;;;;;;;22.09;45.42;100661.16;5077120;28;829;-49
2021/05/01 07:54:44;;;;;;;;;;;;;;;22.29;45.07;100660.66;5063308;28;1105;-48
2021/05/01 07:57:10;;;;;;;;;;;;;;;22.32;45.04;100656.44;5057861;28;993;-47
2021/05/01 07:59:35;;;;;;;;;;;;;;;21.95;45.84;100652.88;5057439;28;893;-47
2021/05/01 08:02:02;;;;;;;;;;;;;;;22.03;45.66;100658.53;5063398;28;1984;-51
2021/05/01 08:04:28;;;;;;;;;;;;;;;21.88;45.38;100659.69;5063163;28;1127;-54
2021/05/01 08:06:53;;;;;;;;;;;;;;;21.83;46.30;100654.25;5056614;28;755;-46
2021/05/01 08:09:19;;;;;;;;;;;;;;;22.18;45.46;100646.22;5055462;28;832;-47
2021/05/01 08:11:45;;;;;;;;;;;;;;;22.35;45.01;100650.28;5056178;28;998;-51
2021/05/01 08:14:10;;;;;;;;;;;;;;;22.22;45.19;100647.22;5056544;28;842;-47
2021/05/01 08:16:35;;;;;;;;;;;;;;;22.21;45.18;100642.81;5055564;28;951;-45
2021/05/01 08:19:02;;;;;;;;;;;;;;;22.10;44.91;100646.97;5056195;28;759;-48
2021/05/01 08:21:28;;;;;;;;;;;;;;;21.84;46.18;100650.38;5056451;28;810;-54
2021/05/01 08:23:54;;;;;;;;;;;;;;;22.22;45.54;100647.22;5056163;28;1909;-48
2021/05/01 08:26:19;;;;;;;;;;;;;;;22.27;45.29;100646.28;5056340;28;759;-57
2021/05/01 08:28:45;;;;;;;;;;;;;;;22.17;45.57;100655.66;5056414;28;814;-56
2021/05/01 08:31:10;;;;;;;;;;;;;;;22.17;45.35;100666.75;5056079;28;767;-49
2021/05/01 08:33:36;;;;;;;;;;;;;;;21.88;44.84;100675.47;5055430;28;959;-56
2021/05/01 08:36:01;;;;;;;;;;;;;;;21.82;46.57;100677.53;5054387;28;872;-56
2021/05/01 08:38:28;;;;;;;;;;;;;;;22.14;45.73;100672.91;5055300;28;1009;-47
2021/05/01 08:40:54;;;;;;;;;;;;;;;22.34;45.28;100681.88;5055305;28;1192;-47
2021/05/01 08:43:19;;;;;;;;;;;;;;;22.22;45.48;100680.47;5056088;28;1972;-52
2021/05/01 08:45:46;;;;;;;;;;;;;;;22.09;45.82;100678.59;5056296;28;916;-46
2021/05/01 08:48:11;;;;;;;;;;;;;;;22.04;44.77;100681.47;5072229;28;963;-49
2021/05/01 08:50:38;;;;;;;;;;;;;;;21.86;46.60;100677.72;5076055;28;788;-46
2021/05/01 08:53:05;;;;;;;;;;;;;;;22.03;46.29;100674.28;5064255;28;931;-54
2021/05/01 08:55:35;;;;;;;;;;;;;;;22.35;45.51;100672.44;5056755;28;932;-46
2021/05/01 08:58:04;;;;;;;;;;;;;;;22.31;45.34;100661.13;5056642;28;928;-51
2021/05/01 09:00:31;;;;;;;;;;;;;;;22.34;45.48;100668.03;5055849;28;830;-46
2021/05/01 09:02:56;;;;;;;;;;;;;;;22.23;45.47;100656.34;5059749;28;1906;-49
2021/05/01 09:05:23;;;;;;;;;;;;;;;21.90;45.43;100653.03;5058342;28;1072;-48
2021/05/01 09:07:49;;;;;;;;;;;;;;;21.90;46.48;100653.03;5060520;28;767;-47
2021/05/01 09:10:14;;;;;;;;;;;;;;;22.14;45.87;100650.75;5058644;28;1084;-47
2021/05/01 09:12:45;;;;;;;;;;;;;;;22.29;45.48;100651.53;5059305;28;908;-51
2021/05/01 09:15:21;;;;;;;;;;;;;;;22.27;45.74;100648.25;5060655;28;920;-50
2021/05/01 09:17:46;;;;;;;;;;;;;;;22.25;45.62;100651.34;5072258;28;1211;-57
2021/05/01 09:20:13;;;;;;;;;;;;;;;21.91;45.55;100638.03;5079729;28;755;-58
2021/05/01 09:23:01;;;;;;;;;;;;;;;21.69;47.24;100640.47;5079796;28;1909;-49
2021/05/01 09:25:28;;;;;;;;;;;;;;;22.14;46.39;100633.34;5067623;28;1046;-55
2021/05/01 09:28:00;;;;;;;;;;;;;;;22.34;45.67;100632.03;5061133;28;856;-56
2021/05/01 09:30:28;;;;;;;;;;;;;;;22.26;45.97;100638.28;5060413;28;889;-50
2021/05/01 09:33:24;;;;;;;;;;;;;;;22.29;46.02;100634.91;5060583;28;1488;-58
2021/05/01 09:35:53;;;;;;;;;;;;;;;21.84;45.71;100632.97;5053429;28;1336;-50
2021/05/01 09:38:18;;;;;;;;;;;;;;;21.66;47.85;100641.09;5059875;28;1069;-55
2021/05/01 09:40:47;;;;;;;;;;;;;;;22.06;46.82;100632.13;5061113;28;925;-55
2021/05/01 09:43:13;;;;;;;;;;;;;;;22.33;46.23;100624.81;5040061;28;2013;-49
2021/05/01 09:45:39;;;;;;;;;;;;;;;22.06;46.76;100621.06;5061353;28;969;-53
2021/05/01 09:48:11;;;;;;;;;;;;;;;22.28;46.39;100613.88;5065276;28;1001;-51
2021/05/01 09:50:37;;;;;;;;;;;;;;;22.11;45.84;100623.69;5061633;28;890;-51
2021/05/01 09:53:08;;;;;;;;;;;;;;;21.83;47.45;100615.50;5054957;28;903;-55
2021/05/01 09:55:42;;;;;;;;;;;;;;;22.19;46.55;100617.41;5060789;28;1032;-54
2021/05/01 09:58:27;;;;;;;;;;;;;;;22.38;46.06;100605.31;5060347;28;933;-55
2021/05/01 10:00:53;;;;;;;;;;;;;;;22.25;46.45;100607.00;5059265;28;1230;-53
2021/05/01 10:03:18;;;;;;;;;;;;;;;22.16;46.56;100595.88;5066674;28;1909;-51
2021/05/01 10:05:45;;;;;;;;;;;;;;;21.94;46.23;100595.91;5062238;28;971;-58
2021/05/01 10:08:10;;;;;;;;;;;;;;;21.72;48.14;100589.22;5059291;28;1238;-48
2021/05/01 10:10:39;;;;;;;;;;;;;;;22.08;47.16;100598.56;5055845;28;982;-55
2021/05/01 10:13:05;;;;;;;;;;;;;;;22.47;46.21;100597.88;5059701;28;973;-49
2021/05/01 10:15:30;;;;;;;;;;;;;;;22.33;46.51;100597.09;5038500;28;1142;-53
2021/05/01 10:18:07;;;;;;;;;;;;;;;22.41;46.38;100598.34;5068928;28;860;-56
2021/05/01 10:20:33;;;;;;;;;;;;;;;22.25;46.04;100595.13;5078784;28;849;-57
2021/05/01 10:23:01;;;;;;;;;;;;;;;21.90;45.96;100595.69;5062021;28;1980;-55
2021/05/01 10:25:26;;;;;;;;;;;;;;;21.85;48.08;100602.19;5059338;28;877;-57
2021/05/01 10:28:04;;;;;;;;;;;;;;;22.24;47.03;100593.50;5059112;28;876;-57
2021/05/01 10:30:49;;;;;;;;;;;;;;;22.21;47.29;100592.97;5057697;28;902;-57
2021/05/01 10:35:50;;;;;;;;;;;;;;;21.86;47.72;100589.16;5058567;28;793;-48
2021/05/01 10:38:19;;;;;;;;;;;;;;;21.87;46.94;100597.16;5059197;28;884;-57
2021/05/01 10:40:45;;;;;;;;;;;;;;;21.79;48.68;100595.13;5059051;28;900;-58
2021/05/01 10:43:12;;;;;;;;;;;;;;;22.11;47.63;100584.13;5058156;28;1890;-58
2021/05/01 10:45:38;;;;;;;;;;;;;;;22.37;47.05;100581.50;5058959;28;940;-49
2021/05/01 10:48:07;;;;;;;;;;;;;;;22.29;47.36;100587.81;5062147;28;959;-58
2021/05/01 10:50:32;;;;;;;;;;;;;;;22.01;48.22;100582.44;5059031;28;947;-57
2021/05/01 10:52:58;;;;;;;;;;;;;;;21.91;47.81;100577.13;5058192;28;806;-54
2021/05/01 10:55:24;;;;;;;;;;;;;;;21.74;48.77;100581.44;5056272;28;951;-57
2021/05/01 10:57:59;;;;;;;;;;;;;;;22.10;47.96;100583.28;5058462;28;857;-63
2021/05/01 11:00:25;;;;;;;;;;;;;;;22.36;47.26;100582.69;5058982;28;904;-48
2021/05/01 11:02:59;;;;;;;;;;;;;;;22.51;46.94;100582.25;5066390;28;1910;-62
2021/05/01 11:05:25;;;;;;;;;;;;;;;22.50;46.87;100579.81;5058823;28;1191;-64
2021/05/01 11:07:51;;;;;;;;;;;;;;;22.31;47.40;100580.00;5054106;28;1198;-63
2021/05/01 11:10:16;;;;;;;;;;;;;;;22.31;47.15;100574.47;5059117;28;1254;-51
2021/05/01 11:12:48;;;;;;;;;;;;;;;21.93;46.63;100577.66;5060670;28;1218;-53
2021/05/01 11:15:13;;;;;;;;;;;;;;;21.84;48.67;100581.16;5059680;28;1190;-62
2021/05/01 11:17:39;;;;;;;;;;;;;;;22.18;47.84;100568.69;5064771;28;909;-46
2021/05/01 11:20:08;;;;;;;;;;;;;;;22.43;47.22;100560.88;5060257;28;867;-60
2021/05/01 11:22:35;;;;;;;;;;;;;;;22.30;47.42;100568.13;5054756;28;1989;-62
2021/05/01 11:25:07;;;;;;;;;;;;;;;22.40;47.06;100569.81;5059342;28;1068;-48
2021/05/01 11:27:32;;;;;;;;;;;;;;;22.19;47.12;100572.28;5059301;28;1065;-64
2021/05/01 11:29:58;;;;;;;;;;;;;;;21.93;46.44;100572.91;5053719;28;872;-49
2021/05/01 11:32:23;;;;;;;;;;;;;;;21.92;48.46;100570.47;5062021;28;1086;-62
2021/05/01 11:34:58;;;;;;;;;;;;;;;22.23;47.65;100564.97;5059180;28;888;-56
2021/05/01 11:37:23;;;;;;;;;;;;;;;22.38;47.01;100574.84;5052293;28;1049;-62
2021/05/01 11:39:49;;;;;;;;;;;;;;;22.31;47.35;100572.50;5054756;28;1155;-49
2021/05/01 11:42:17;;;;;;;;;;;;;;;22.31;47.11;100571.69;5052806;28;1981;-47
2021/05/01 11:44:42;;;;;;;;;;;;;;;22.13;46.39;100568.84;5052790;28;920;-49
2021/05/01 11:47:11;;;;;;;;;;;;;;;21.79;48.29;100558.34;5053074;28;1151;-51
2021/05/01 11:49:37;;;;;;;;;;;;;;;22.01;48.14;100551.97;5052793;28;1099;-49
2021/05/01 11:52:18;;;;;;;;;;;;;;;22.31;47.26;100557.84;5053352;28;1111;-63
2021/05/01 11:54:56;;;;;;;;;;;;;;;22.19;47.28;100553.72;5052379;28;1219;-54
2021/05/01 11:57:48;;;;;;;;;;;;;;;22.31;47.18;100549.53;5058362;28;898;-62
2021/05/01 12:00:26;;;;;;;;;;;;;;;22.00;46.65;100542.03;5053375;28;1400;-54
2021/05/01 12:02:51;;;;;;;;;;;;;;;21.81;48.61;100537.53;5059080;28;1906;-54
2021/05/01 12:05:17;;;;;;;;;;;;;;;22.15;47.71;100527.78;5051730;28;888;-62
2021/05/01 12:08:01;;;;;;;;;;;;;;;22.33;46.96;100531.50;5058898;28;882;-48
2021/05/01 12:10:27;;;;;;;;;;;;;;;22.32;47.06;100527.06;5058422;28;1089;-51
2021/05/01 12:12:52;;;;;;;;;;;;;;;22.45;46.65;100530.06;5057584;28;881;-60
2021/05/01 12:15:18;;;;;;;;;;;;;;;22.21;45.82;100528.47;5058432;28;1048;-59
2021/05/01 12:17:53;;;;;;;;;;;;;;;21.88;48.43;100525.97;5057952;28;1063;-58
2021/05/01 12:20:19;;;;;;;;;;;;;;;22.27;47.18;100531.91;5056134;28;857;-56
2021/05/01 12:22:45;;;;;;;;;;;;;;;22.37;46.82;100515.03;5055983;28;1975;-51
2021/05/01 12:25:29;;;;;;;;;;;;;;;22.22;47.32;100513.50;5056953;28;991;-64
2021/05/01 12:27:54;;;;;;;;;;;;;;;22.26;46.98;100506.19;5058013;28;1049;-52
2021/05/01 12:30:38;;;;;;;;;;;;;;;22.04;46.56;100507.84;5059463;28;936;-56
2021/05/01 12:33:22;;;;;;;;;;;;;;;21.80;48.67;100502.66;5039631;28;1294;-52
2021/05/01 12:35:48;;;;;;;;;;;;;;;22.14;47.70;100500.41;5058917;28;901;-61
2021/05/01 12:38:14;;;;;;;;;;;;;;;22.45;46.88;100497.63;5058280;28;889;-51
2021/05/01 12:40:40;;;;;;;;;;;;;;;22.27;47.17;100493.13;5058536;28;947;-62
2021/05/01 12:43:25;;;;;;;;;;;;;;;22.29;47.22;100501.97;5059505;28;1973;-63
2021/05/01 12:45:51;;;;;;;;;;;;;;;22.12;45.76;100503.50;5051214;28;1203;-52
2021/05/01 12:48:35;;;;;;;;;;;;;;;21.84;48.27;100502.88;5060678;28;988;-55
2021/05/01 12:51:13;;;;;;;;;;;;;;;22.24;47.32;100507.63;5055080;28;857;-61
2021/05/01 12:53:39;;;;;;;;;;;;;;;22.42;46.70;100500.25;5059126;28;886;-50
2021/05/01 12:56:15;;;;;;;;;;;;;;;22.34;47.12;100493.53;5058766;28;973;-55
2021/05/01 12:58:40;;;;;;;;;;;;;;;22.31;46.68;100500.47;5057500;28;1081;-50